Volk Field Camp Douglas US
ICAO: KVOK
IATA: VOK
Category: Medium
Scheduled Services: No

Elevation: 912 ft
TransAlt. 18000 ft.

Airport Communications:
APP/DEP:135.25
CTAF:127.5
GND:121.9
HARDWOOD RANGE:132.025
SHEBOYGAN RANGE:26.04
PTD:37.22
TWR:127.5

KVOK Zoom In..

Runways:

(A) RW 09 length 9000 ft width 150 ft
---- / hdg 89

(B) RW 27 length 9000 ft width 150 ft
ILS 108.50 / hdg 269

Location; KVOK
Day. 21 / Time. 14.26 Zulu
* Altimeter: O2.A
* Temperature: 12° c. 53.6°f.
* Wind from: 110° Speed 07 kn.
Dewpoint: 08° c.
Visibility: 10 Statute Miles.
Clouds: Broken 1900 ft.
Clouds: Overcast 5500 ft.

KVOK 211426Z 11007KT 10SM BKN019 OVC055 12/08 A3013 RMK AO2A


Wind From 110°
Speed 07 kn.

 
 
jpsmedia.com for Web Design SOUNDCLOUD worldairports.se 2018   terms of use